createdAt,value
2023-04-02T00:02:31.004Z,100383.38
2023-04-02T00:05:30.537Z,100387.41
2023-04-02T00:08:00.062Z,100389.38
2023-04-02T00:10:31.273Z,100387.78
2023-04-02T00:13:06.876Z,100398.44
2023-04-02T00:15:35.597Z,100409.47
2023-04-02T00:18:04.416Z,100406.88
2023-04-02T00:20:36.936Z,100412.06
2023-04-02T00:23:05.557Z,100428.69
2023-04-02T00:25:42.802Z,100431.28
2023-04-02T00:28:14.183Z,100427.56
2023-04-02T00:30:48.675Z,100438.34
2023-04-02T00:33:19.452Z,100444.78
2023-04-02T00:35:48.970Z,100442.06
2023-04-02T00:38:22.527Z,100452.84
2023-04-02T00:40:56.492Z,100454.72
2023-04-02T00:43:28.019Z,100466.16
2023-04-02T00:45:58.999Z,100460.69
2023-04-02T00:48:42.388Z,100468.88
2023-04-02T00:51:16.203Z,100473.72
2023-04-02T00:53:47.721Z,100476.44
2023-04-02T00:56:20.776Z,100478.41
2023-04-02T00:58:54.800Z,100487.63
2023-04-02T01:01:26.321Z,100491.59
2023-04-02T01:03:59.386Z,100494.31
2023-04-02T01:06:31.304Z,100500.75
2023-04-02T01:09:17.023Z,100501.63
2023-04-02T01:12:09.993Z,100496.56
2023-04-02T01:14:51.267Z,100505.63
2023-04-02T01:17:36.758Z,100507.47
2023-04-02T01:20:25.431Z,100518.63
2023-04-02T01:22:59.456Z,100522.34
2023-04-02T01:25:35.953Z,100523.31
2023-04-02T01:28:11.452Z,100529.91
2023-04-02T01:30:42.402Z,100532.88
2023-04-02T01:33:10.495Z,100526.06
2023-04-02T01:35:43.592Z,100541.53
2023-04-02T01:38:19.198Z,100545.50
2023-04-02T01:40:53.578Z,100549.34
2023-04-02T01:43:31.087Z,100547.63
2023-04-02T01:46:06.043Z,100553.19
2023-04-02T01:48:33.952Z,100559.75
2023-04-02T01:51:05.456Z,100560.00
2023-04-02T01:53:33.370Z,100563.97
2023-04-02T01:56:04.742Z,100578.47
2023-04-02T01:58:34.360Z,100574.25
2023-04-02T02:01:08.345Z,100575.84
2023-04-02T02:03:40.300Z,100586.88
2023-04-02T02:06:12.479Z,100594.69
2023-04-02T02:08:46.123Z,100604.94
2023-04-02T02:11:17.370Z,100612.13
2023-04-02T02:13:49.413Z,100609.91
2023-04-02T02:16:19.416Z,100623.91
2023-04-02T02:18:51.013Z,100624.50
2023-04-02T02:21:32.058Z,100627.72
2023-04-02T02:24:02.200Z,100626.38
2023-04-02T02:26:33.933Z,100635.53
2023-04-02T02:29:07.265Z,100635.00
2023-04-02T02:31:38.164Z,100647.25
2023-04-02T02:34:16.413Z,100652.56
2023-04-02T02:36:50.702Z,100645.41
2023-04-02T02:39:25.396Z,100659.38
2023-04-02T02:41:57.166Z,100662.09
2023-04-02T02:44:29.483Z,100664.66
2023-04-02T02:47:02.761Z,100658.09
2023-04-02T02:49:33.979Z,100670.22
2023-04-02T02:52:14.338Z,100673.94
2023-04-02T02:55:02.731Z,100678.88
2023-04-02T02:57:49.081Z,100701.84
2023-04-02T03:00:19.889Z,100687.72
2023-04-02T03:02:50.684Z,100691.44
2023-04-02T03:05:23.911Z,100703.19
2023-04-02T03:07:57.541Z,100699.94
2023-04-02T03:10:35.602Z,100711.94
2023-04-02T03:13:09.492Z,100720.50
2023-04-02T03:15:43.226Z,100729.13
2023-04-02T03:18:19.091Z,100723.69
2023-04-02T03:20:50.608Z,100742.44
2023-04-02T03:23:23.417Z,100741.56
2023-04-02T03:25:58.305Z,100741.28
2023-04-02T03:28:31.199Z,100750.94
2023-04-02T03:31:03.633Z,100758.59
2023-04-02T03:33:36.971Z,100756.06
2023-04-02T03:36:18.745Z,100768.34
2023-04-02T03:38:51.919Z,100773.38
2023-04-02T03:41:27.109Z,100771.22
2023-04-02T03:44:00.282Z,100790.88
2023-04-02T03:46:32.533Z,100802.66
2023-04-02T03:49:07.315Z,100804.94
2023-04-02T03:51:41.744Z,100809.72
2023-04-02T03:54:14.793Z,100808.63
2023-04-02T03:56:43.976Z,100823.41
2023-04-02T03:59:22.930Z,100842.25
2023-04-02T04:01:57.804Z,100842.56
2023-04-02T04:04:30.107Z,100850.63
2023-04-02T04:06:59.549Z,100853.25
2023-04-02T04:09:31.359Z,100866.44
2023-04-02T04:12:09.874Z,100861.00
2023-04-02T04:14:42.775Z,100870.44
2023-04-02T04:17:23.732Z,100867.84
2023-04-02T04:20:01.772Z,100873.59
2023-04-02T04:22:33.640Z,100882.75
2023-04-02T04:25:23.350Z,100888.28
2023-04-02T04:28:05.671Z,100889.31
2023-04-02T04:30:47.004Z,100890.28
2023-04-02T04:33:22.754Z,100910.28
2023-04-02T04:35:59.319Z,100909.94
2023-04-02T04:38:33.900Z,100918.72
2023-04-02T04:41:07.405Z,100925.03
2023-04-02T04:43:47.095Z,100925.81
2023-04-02T04:46:22.886Z,100933.97
2023-04-02T04:48:55.667Z,100942.00
2023-04-02T04:51:30.848Z,100941.78
2023-04-02T04:53:59.333Z,100950.72
2023-04-02T04:56:33.019Z,100960.63
2023-04-02T04:59:19.220Z,100962.69
2023-04-02T05:01:54.122Z,100971.28
2023-04-02T05:04:27.675Z,100974.97
2023-04-02T05:07:03.855Z,100976.59
2023-04-02T05:09:37.976Z,100978.66
2023-04-02T05:12:17.398Z,100991.38
2023-04-02T05:14:51.160Z,101004.88
2023-04-02T05:17:23.656Z,100996.63
2023-04-02T05:19:57.683Z,101007.50
2023-04-02T05:22:35.934Z,101010.31
2023-04-02T05:25:16.683Z,101021.09
2023-04-02T05:27:52.717Z,101016.91
2023-04-02T05:30:46.605Z,101034.00
2023-04-02T05:33:23.433Z,101038.66
2023-04-02T05:35:57.501Z,101050.56
2023-04-02T05:38:31.765Z,101045.41
2023-04-02T05:41:03.214Z,101042.59
2023-04-02T05:43:35.428Z,101059.78
2023-04-02T05:46:16.282Z,101061.72
2023-04-02T05:48:49.071Z,101063.47
2023-04-02T05:51:22.476Z,101078.56
2023-04-02T05:53:56.636Z,101090.09
2023-04-02T05:56:27.062Z,101100.97
2023-04-02T05:58:59.187Z,101100.97
2023-04-02T06:01:39.081Z,101116.72
2023-04-02T06:04:19.884Z,101119.38
2023-04-02T06:06:53.527Z,101116.56
2023-04-02T06:09:34.784Z,101126.94
2023-04-02T06:12:14.436Z,101128.19
2023-04-02T06:14:42.763Z,101139.16
2023-04-02T06:17:15.492Z,101148.19
2023-04-02T06:19:44.305Z,101151.03
2023-04-02T06:22:21.547Z,101153.59
2023-04-02T06:24:58.720Z,101158.19
2023-04-02T06:27:28.441Z,101169.44
2023-04-02T06:30:03.383Z,101163.13
2023-04-02T06:32:32.814Z,101166.94
2023-04-02T06:35:01.570Z,101172.88
2023-04-02T06:37:33.458Z,101185.47
2023-04-02T06:40:29.393Z,101192.88
2023-04-02T06:43:00.506Z,101198.19
2023-04-02T06:45:53.033Z,101200.50
2023-04-02T06:48:48.890Z,101211.19
2023-04-02T06:51:21.569Z,101210.22
2023-04-02T06:53:51.656Z,101217.50
2023-04-02T06:56:32.125Z,101230.03
2023-04-02T06:59:01.203Z,101231.00
2023-04-02T07:01:33.713Z,101237.22
2023-04-02T07:04:01.824Z,101238.47
2023-04-02T07:06:35.534Z,101240.13
2023-04-02T07:09:03.682Z,101248.09
2023-04-02T07:11:32.837Z,101259.06
2023-04-02T07:14:03.699Z,101262.03
2023-04-02T07:16:33.762Z,101269.03
2023-04-02T07:19:04.164Z,101277.47
2023-04-02T07:21:34.541Z,101277.84
2023-04-02T07:24:02.677Z,101287.59
2023-04-02T07:26:32.116Z,101286.00
2023-04-02T07:28:59.952Z,101295.41
2023-04-02T07:31:29.363Z,101293.38
2023-04-02T07:33:59.826Z,101297.25
2023-04-02T07:36:29.744Z,101303.66
2023-04-02T07:38:57.655Z,101310.13
2023-04-02T07:41:26.373Z,101315.47
2023-04-02T07:43:55.620Z,101319.06
2023-04-02T07:46:23.528Z,101330.81
2023-04-02T07:48:51.336Z,101343.44
2023-04-02T07:51:21.363Z,101342.75
2023-04-02T07:53:51.065Z,101353.44
2023-04-02T07:56:21.003Z,101353.25
2023-04-02T07:58:48.956Z,101367.09
2023-04-02T08:01:20.789Z,101365.16
2023-04-02T08:03:49.601Z,101360.69
2023-04-02T08:06:18.387Z,101369.31
2023-04-02T08:08:46.327Z,101377.94
2023-04-02T08:11:14.074Z,101382.31
2023-04-02T08:13:41.940Z,101391.31
2023-04-02T08:16:10.869Z,101389.47
2023-04-02T08:18:40.265Z,101397.81
2023-04-02T08:21:09.456Z,101407.59
2023-04-02T08:23:38.118Z,101418.56
2023-04-02T08:26:10.095Z,101419.63
2023-04-02T08:28:38.197Z,101428.72
2023-04-02T08:31:09.094Z,101439.44
2023-04-02T08:33:36.998Z,101445.81
2023-04-02T08:36:06.644Z,101445.63
2023-04-02T08:38:34.522Z,101442.31
2023-04-02T08:41:05.781Z,101448.72
2023-04-02T08:43:56.698Z,101449.59
2023-04-02T08:46:27.983Z,101457.94
2023-04-02T08:48:59.926Z,101467.13
2023-04-02T08:51:33.424Z,101466.06
2023-04-02T08:54:04.570Z,101476.75
2023-04-02T08:56:37.678Z,101480.19
2023-04-02T08:59:10.523Z,101483.03
2023-04-02T09:01:49.280Z,101492.31
2023-04-02T09:04:21.896Z,101494.88
2023-04-02T09:06:54.594Z,101500.91
2023-04-02T09:09:24.393Z,101503.53
2023-04-02T09:11:56.323Z,101508.72
2023-04-02T09:14:32.731Z,101502.94
2023-04-02T09:17:03.477Z,101512.03
2023-04-02T09:19:37.012Z,101508.50
2023-04-02T09:22:11.202Z,101514.59
2023-04-02T09:24:39.183Z,101517.81
2023-04-02T09:27:19.309Z,101509.94
2023-04-02T09:29:49.388Z,101523.34
2023-04-02T09:32:42.555Z,101522.63
2023-04-02T09:35:25.410Z,101531.56
2023-04-02T09:38:31.570Z,101543.81
2023-04-02T09:41:02.074Z,101558.72
2023-04-02T09:43:32.265Z,101566.63
2023-04-02T09:46:02.742Z,101581.69
2023-04-02T09:48:33.853Z,101574.22
2023-04-02T09:51:23.597Z,101584.47
2023-04-02T09:54:08.198Z,101585.19
2023-04-02T09:56:37.765Z,101587.91
2023-04-02T09:59:08.158Z,101586.69
2023-04-02T10:01:38.787Z,101592.13
2023-04-02T10:04:27.728Z,101599.84
2023-04-02T10:06:57.980Z,101598.72
2023-04-02T10:09:32.355Z,101605.56
2023-04-02T10:12:01.896Z,101614.59
2023-04-02T10:14:33.293Z,101615.47
2023-04-02T10:17:07.177Z,101610.72
2023-04-02T10:19:38.643Z,101619.13
2023-04-02T10:22:13.325Z,101628.94
2023-04-02T10:24:42.611Z,101635.38
2023-04-02T10:27:22.736Z,101642.38
2023-04-02T10:30:03.944Z,101648.50
2023-04-02T10:32:38.384Z,101653.44
2023-04-02T10:35:16.723Z,101658.53
2023-04-02T10:38:01.974Z,101663.69
2023-04-02T10:40:37.359Z,101662.38
2023-04-02T10:43:35.436Z,101677.03
2023-04-02T10:46:10.522Z,101686.75
2023-04-02T10:48:50.033Z,101692.28
2023-04-02T10:51:30.323Z,101684.38
2023-04-02T10:54:06.898Z,101706.75
2023-04-02T10:56:47.779Z,101709.47
2023-04-02T10:59:23.694Z,101717.97
2023-04-02T11:01:53.674Z,101713.75
2023-04-02T11:04:26.354Z,101709.72
2023-04-02T11:07:10.986Z,101719.22
2023-04-02T11:09:43.829Z,101731.28
2023-04-02T11:12:22.610Z,101729.44
2023-04-02T11:14:52.659Z,101739.13
2023-04-02T11:17:21.819Z,101731.72
2023-04-02T11:19:49.781Z,101745.69
2023-04-02T11:22:19.397Z,101752.94
2023-04-02T11:24:51.134Z,101751.47
2023-04-02T11:27:27.741Z,101748.66
2023-04-02T11:30:03.936Z,101750.50
2023-04-02T11:32:42.348Z,101745.50
2023-04-02T11:35:37.305Z,101758.06
2023-04-02T11:38:46.478Z,101757.28
2023-04-02T11:41:14.361Z,101767.19
2023-04-02T11:44:02.138Z,101773.38
2023-04-02T11:46:46.181Z,101773.22
2023-04-02T11:49:58.172Z,101771.13
2023-04-02T11:52:28.905Z,101766.53
2023-04-02T11:55:03.218Z,101776.09
2023-04-02T11:57:52.157Z,101775.78
2023-04-02T12:00:39.030Z,101781.22
2023-04-02T12:03:32.273Z,101784.63
2023-04-02T12:06:06.378Z,101779.56
2023-04-02T12:08:57.062Z,101788.09
2023-04-02T12:11:35.113Z,101795.09
2023-04-02T12:14:07.884Z,101804.31
2023-04-02T12:16:40.209Z,101800.38
2023-04-02T12:19:10.464Z,101802.06
2023-04-02T12:21:39.184Z,101817.94
2023-04-02T12:24:08.070Z,101812.50
2023-04-02T12:26:38.439Z,101812.75
2023-04-02T12:29:33.865Z,101818.88
2023-04-02T12:32:04.031Z,101817.78
2023-04-02T12:34:32.101Z,101827.47
2023-04-02T12:37:02.965Z,101822.72
2023-04-02T12:39:32.357Z,101831.59
2023-04-02T12:42:01.036Z,101825.72
2023-04-02T12:44:31.100Z,101826.06
2023-04-02T12:47:00.024Z,101831.16
2023-04-02T12:49:39.601Z,101839.94
2023-04-02T12:52:10.336Z,101846.16
2023-04-02T12:54:45.021Z,101849.84
2023-04-02T12:57:39.882Z,101850.94
2023-04-02T13:00:31.878Z,101847.22
2023-04-02T13:03:02.883Z,101866.53
2023-04-02T13:05:39.575Z,101869.88
2023-04-02T13:08:08.718Z,101871.97
2023-04-02T13:10:37.520Z,101872.88
2023-04-02T13:13:06.454Z,101878.75
2023-04-02T13:15:37.127Z,101879.53
2023-04-02T13:18:08.601Z,101882.41
2023-04-02T13:20:40.017Z,101884.25
2023-04-02T13:23:36.505Z,101893.75
2023-04-02T13:26:15.942Z,101888.03
2023-04-02T13:28:45.373Z,101891.19
2023-04-02T13:31:17.728Z,101893.75
2023-04-02T13:33:48.384Z,101903.81
2023-04-02T13:36:17.853Z,101901.97
2023-04-02T13:38:45.851Z,101894.69
2023-04-02T13:41:22.519Z,101917.19
2023-04-02T13:43:51.043Z,101914.09
2023-04-02T13:46:23.489Z,101915.22
2023-04-02T13:48:52.485Z,101927.66
2023-04-02T13:51:23.939Z,101916.56
2023-04-02T13:53:56.158Z,101920.38
2023-04-02T13:56:24.706Z,101922.66
2023-04-02T13:58:53.869Z,101932.38
2023-04-02T14:01:25.918Z,101933.47
2023-04-02T14:03:55.630Z,101935.91
2023-04-02T14:06:36.308Z,101957.75
2023-04-02T14:09:13.001Z,101948.19
2023-04-02T14:11:49.833Z,101956.50
2023-04-02T14:14:35.417Z,101963.19
2023-04-02T14:17:16.234Z,101963.09
2023-04-02T14:20:03.927Z,101962.56
2023-04-02T14:22:47.312Z,101976.63
2023-04-02T14:25:26.039Z,101974.78
2023-04-02T14:28:02.080Z,101975.81
2023-04-02T14:30:44.178Z,101977.13
2023-04-02T14:33:28.747Z,101969.94
2023-04-02T14:36:06.183Z,101978.31
2023-04-02T14:38:43.491Z,101975.72
2023-04-02T14:41:17.596Z,101981.69
2023-04-02T14:43:46.968Z,101982.09
2023-04-02T14:46:15.065Z,101993.94
2023-04-02T14:48:51.229Z,101997.47
2023-04-02T14:51:26.406Z,101997.59
2023-04-02T14:54:03.699Z,102001.84
2023-04-02T14:56:38.286Z,101996.50
2023-04-02T14:59:20.657Z,101995.75
2023-04-02T15:01:51.714Z,101996.59
2023-04-02T15:04:26.636Z,101997.47
2023-04-02T15:07:02.605Z,102002.81
2023-04-02T15:09:38.212Z,102009.84
2023-04-02T15:12:11.901Z,102006.97
2023-04-02T15:14:46.418Z,102008.63
2023-04-02T15:17:14.834Z,102004.34
2023-04-02T15:20:05.181Z,102002.50
2023-04-02T15:22:41.289Z,102011.94
2023-04-02T15:25:27.474Z,102007.88
2023-04-02T15:28:08.231Z,102001.13
2023-04-02T15:30:40.207Z,102004.00
2023-04-02T15:33:41.425Z,102008.63
2023-04-02T15:36:46.606Z,102007.53
2023-04-02T15:39:27.515Z,102008.56
2023-04-02T15:42:09.905Z,102022.16
2023-04-02T15:44:46.207Z,102026.03
2023-04-02T15:47:24.954Z,102016.72
2023-04-02T15:50:03.248Z,102014.81
2023-04-02T15:52:37.502Z,102019.22
2023-04-02T15:55:19.691Z,102022.97
2023-04-02T15:58:02.814Z,102028.34
2023-04-02T16:00:31.769Z,102033.28
2023-04-02T16:03:18.282Z,102046.31
2023-04-02T16:05:59.070Z,102040.81
2023-04-02T16:08:43.287Z,102042.50
2023-04-02T16:11:13.053Z,102055.16
2023-04-02T16:13:43.248Z,102051.63
2023-04-02T16:16:19.183Z,102063.03
2023-04-02T16:18:55.680Z,102062.97
2023-04-02T16:21:26.084Z,102060.50
2023-04-02T16:23:54.227Z,102067.00
2023-04-02T16:26:34.346Z,102080.34
2023-04-02T16:29:17.006Z,102076.50
2023-04-02T16:31:51.242Z,102077.63
2023-04-02T16:34:31.564Z,102074.75
2023-04-02T16:37:06.284Z,102080.19
2023-04-02T16:39:40.662Z,102080.19
2023-04-02T16:42:19.194Z,102085.56
2023-04-02T16:45:01.515Z,102092.19
2023-04-02T16:47:47.399Z,102093.88
2023-04-02T16:50:24.427Z,102094.75
2023-04-02T16:52:59.285Z,102104.75
2023-04-02T16:55:39.397Z,102122.06
2023-04-02T16:58:24.050Z,102109.41
2023-04-02T17:00:58.790Z,102118.56
2023-04-02T17:03:48.776Z,102127.00
2023-04-02T17:06:24.589Z,102126.38
2023-04-02T17:08:57.931Z,102131.75
2023-04-02T17:11:30.959Z,102133.59
2023-04-02T17:14:06.108Z,102145.94
2023-04-02T17:16:42.594Z,102151.09
2023-04-02T17:19:12.480Z,102146.47
2023-04-02T17:21:42.778Z,102155.59
2023-04-02T17:24:20.939Z,102163.75
2023-04-02T17:27:08.000Z,102157.53
2023-04-02T17:29:39.662Z,102158.56
2023-04-02T17:32:17.984Z,102169.44
2023-04-02T17:34:45.988Z,102163.19
2023-04-02T17:37:26.232Z,102178.63
2023-04-02T17:40:03.297Z,102167.81
2023-04-02T17:42:48.058Z,102184.31
2023-04-02T17:45:21.445Z,102186.28
2023-04-02T17:48:00.191Z,102188.19
2023-04-02T17:50:39.576Z,102189.16
2023-04-02T17:53:24.232Z,102193.22
2023-04-02T17:56:03.604Z,102200.50
2023-04-02T17:58:50.274Z,102212.34
2023-04-02T18:01:26.472Z,102212.47
2023-04-02T18:04:05.673Z,102219.94
2023-04-02T18:06:42.669Z,102221.03
2023-04-02T18:09:33.942Z,102235.44
2023-04-02T18:12:13.015Z,102233.66
2023-04-02T18:15:00.324Z,102232.78
2023-04-02T18:17:39.900Z,102246.50
2023-04-02T18:20:24.399Z,102240.94
2023-04-02T18:23:03.378Z,102253.72
2023-04-02T18:25:52.698Z,102250.13
2023-04-02T18:28:33.282Z,102259.22
2023-04-02T18:31:07.160Z,102265.84
2023-04-02T18:34:08.722Z,102262.41
2023-04-02T18:36:50.965Z,102272.25
2023-04-02T18:39:32.604Z,102271.53
2023-04-02T18:42:06.568Z,102270.66
2023-04-02T18:44:49.849Z,102277.03
2023-04-02T18:47:22.058Z,102279.19
2023-04-02T18:50:12.142Z,102287.38
2023-04-02T18:52:42.758Z,102292.75
2023-04-02T18:55:17.132Z,102289.06
2023-04-02T18:57:48.665Z,102297.31
2023-04-02T19:00:25.318Z,102305.47
2023-04-02T19:02:57.780Z,102304.59
2023-04-02T19:05:33.944Z,102306.41
2023-04-02T19:08:09.584Z,102307.38
2023-04-02T19:10:39.621Z,102311.03
2023-04-02T19:13:15.118Z,102304.66
2023-04-02T19:16:04.186Z,102310.97
2023-04-02T19:18:44.084Z,102311.91
2023-04-02T19:21:21.470Z,102316.53
2023-04-02T19:24:03.945Z,102320.06
2023-04-02T19:26:40.169Z,102333.81
2023-04-02T19:29:23.427Z,102336.38
2023-04-02T19:31:56.109Z,102333.72
2023-04-02T19:34:34.219Z,102340.00
2023-04-02T19:37:07.178Z,102345.44
2023-04-02T19:40:09.305Z,102344.47
2023-04-02T19:42:46.729Z,102346.38
2023-04-02T19:45:30.363Z,102338.28
2023-04-02T19:48:00.746Z,102344.78
2023-04-02T19:50:29.622Z,102344.84
2023-04-02T19:52:57.660Z,102353.06
2023-04-02T19:55:27.747Z,102353.94
2023-04-02T19:58:08.390Z,102356.78
2023-04-02T20:00:43.653Z,102356.06
2023-04-02T20:03:11.539Z,102355.19
2023-04-02T20:05:42.710Z,102357.91
2023-04-02T20:08:11.127Z,102363.47
2023-04-02T20:10:40.886Z,102361.69
2023-04-02T20:13:09.156Z,102369.00
2023-04-02T20:15:37.316Z,102364.56
2023-04-02T20:18:06.204Z,102370.00
2023-04-02T20:20:34.334Z,102376.44
2023-04-02T20:23:02.513Z,102385.53
2023-04-02T20:25:31.877Z,102383.72
2023-04-02T20:28:03.819Z,102382.81
2023-04-02T20:30:32.839Z,102388.38
2023-04-02T20:33:01.096Z,102390.16
2023-04-02T20:35:29.652Z,102401.91
2023-04-02T20:37:57.557Z,102405.56
2023-04-02T20:40:25.493Z,102406.47
2023-04-02T20:42:53.448Z,102405.56
2023-04-02T20:45:22.732Z,102405.56
2023-04-02T20:47:50.907Z,102412.84
2023-04-02T20:50:18.963Z,102411.94
2023-04-02T20:52:46.835Z,102419.22
2023-04-02T20:55:14.920Z,102416.50
2023-04-02T20:57:42.970Z,102419.22
2023-04-02T21:00:13.479Z,102417.38
2023-04-02T21:02:42.906Z,102426.53
2023-04-02T21:05:10.928Z,102426.59
2023-04-02T21:07:38.931Z,102431.13
2023-04-02T21:10:07.674Z,102426.63
2023-04-02T21:12:35.625Z,102428.53
2023-04-02T21:15:03.477Z,102431.31
2023-04-02T21:17:31.474Z,102427.72
2023-04-02T21:20:00.796Z,102432.25
2023-04-02T21:22:28.592Z,102432.41
2023-04-02T21:24:56.481Z,102438.78
2023-04-02T21:27:25.954Z,102440.69
2023-04-02T21:29:53.982Z,102438.13
2023-04-02T21:32:22.322Z,102440.88
2023-04-02T21:34:50.572Z,102445.44
2023-04-02T21:37:19.813Z,102446.38
2023-04-02T21:39:50.086Z,102439.28
2023-04-02T21:42:18.451Z,102448.47
2023-04-02T21:44:46.318Z,102444.03
2023-04-02T21:47:14.345Z,102444.16
2023-04-02T21:49:42.241Z,102445.13
2023-04-02T21:52:10.319Z,102453.41
2023-04-02T21:54:39.685Z,102448.03
2023-04-02T21:57:07.713Z,102449.03
2023-04-02T21:59:35.727Z,102450.94
2023-04-02T22:02:04.956Z,102449.19
2023-04-02T22:04:33.478Z,102456.50
2023-04-02T22:07:01.772Z,102464.63
2023-04-02T22:09:30.384Z,102457.50
2023-04-02T22:11:59.980Z,102461.09
2023-04-02T22:14:28.586Z,102463.00
2023-04-02T22:16:58.649Z,102461.25
2023-04-02T22:19:27.166Z,102464.91
2023-04-02T22:21:56.269Z,102463.13
2023-04-02T22:24:25.206Z,102467.63
2023-04-02T22:26:53.560Z,102464.06
2023-04-02T22:29:23.186Z,102466.78
2023-04-02T22:31:51.094Z,102478.59
2023-04-02T22:34:18.964Z,102475.94
2023-04-02T22:36:46.699Z,102475.03
2023-04-02T22:39:15.157Z,102481.44
2023-04-02T22:41:43.320Z,102482.44
2023-04-02T22:44:15.486Z,102486.09
2023-04-02T22:46:44.843Z,102482.69
2023-04-02T22:49:15.881Z,102485.53
2023-04-02T22:51:44.590Z,102491.13
2023-04-02T22:54:12.534Z,102494.00
2023-04-02T22:56:40.401Z,102505.94
2023-04-02T22:59:08.109Z,102506.09
2023-04-02T23:01:37.156Z,102500.75
2023-04-02T23:04:06.617Z,102499.06
2023-04-02T23:06:34.544Z,102499.19
2023-04-02T23:09:02.355Z,102501.06
2023-04-02T23:11:30.301Z,102505.59
2023-04-02T23:13:59.252Z,102507.38
2023-04-02T23:16:29.404Z,102508.31
2023-04-02T23:18:57.666Z,102505.69
2023-04-02T23:21:27.293Z,102505.59
2023-04-02T23:23:55.139Z,102502.00
2023-04-02T23:26:26.066Z,102508.31
2023-04-02T23:28:53.898Z,102502.00
2023-04-02T23:31:23.974Z,102500.16
2023-04-02T23:33:54.226Z,102509.19
2023-04-02T23:36:26.718Z,102503.78
2023-04-02T23:38:57.315Z,102511.13
2023-04-02T23:41:26.971Z,102519.16
2023-04-02T23:43:55.789Z,102514.72
2023-04-02T23:46:24.168Z,102521.97
2023-04-02T23:48:52.209Z,102515.66
2023-04-02T23:51:20.516Z,102512.09
2023-04-02T23:53:48.563Z,102515.81
2023-04-02T23:56:18.109Z,102521.28
2023-04-02T23:58:46.214Z,102516.03
